^^
Datos históricos de la estación: Murcia-Puente Tocinos
Diario Informe para Noviembre 6, 2021 Unidades:  Métrico    Ingés   Ambas
Diario Semanal Mensual Anual
  Máxima: Mínima: Promedio:
Temperatura: 18.5 °C 10.2 °C 13.5 °C
Punto de rocio: 7.8 °C -3.3 °C 2.5 °C
Humedad: 84% 22.7% 51%
Velocidad viento: 18.3km/h 2.3km/h 8.7km/h
Racha viento: 35.2km/h - -
Viento- - OSO
Presión: 1021.7 hPa 1019.3 hPa -
Precipitación: 0.0 mm    
 
 
Tabla de datos para Noviembre 6, 2021
Hora Temperatura Punto de rocio Presión Viento Velocidad viento Racha viento Humedad Intensidad lluvia(por hora) Nubes
00:04 10.9 °C 7.3 °C 1021.2 hPa NE 9.5 km/h 20.4 km/h 78% 0.0 mm
00:09 10.9 °C 7.2 °C 1021.2 hPa NE 10.2 km/h 16.7 km/h 78.2% 0.0 mm
00:14 10.8 °C 7.3 °C 1021.2 hPa NE 11.1 km/h 15.6 km/h 79% 0.0 mm
00:19 10.7 °C 7.4 °C 1021.2 hPa NE 10.4 km/h 13 km/h 79.9% 0.0 mm
00:24 10.7 °C 7.5 °C 1021.2 hPa NE 9.5 km/h 11.1 km/h 80.7% 0.0 mm
00:29 10.7 °C 7.6 °C 1020.9 hPa NE 7.6 km/h 8.4 km/h 81% 0.0 mm
00:34 10.7 °C 7.6 °C 1020.9 hPa NNE 5 km/h 7.4 km/h 81% 0.0 mm
00:39 10.6 °C 7.7 °C 1020.9 hPa North 4.5 km/h 7.4 km/h 82% 0.0 mm
00:44 10.6 °C 7.6 °C 1020.9 hPa NNO 3.9 km/h 7.4 km/h 82% 0.0 mm
00:49 10.4 °C 7.5 °C 1020.9 hPa Oeste 4.2 km/h 7.6 km/h 82.2% 0.0 mm
00:54 10.4 °C 7.6 °C 1020.9 hPa Oeste 4.7 km/h 9.3 km/h 83% 0.0 mm
00:59 10.4 °C 7.6 °C 1020.8 hPa ONO 4.8 km/h 7.4 km/h 83% 0.0 mm
01:04 10.4 °C 7.8 °C 1020.8 hPa ONO 5 km/h 9.3 km/h 83.6% 0.0 mm
01:09 10.4 °C 7.8 °C 1020.8 hPa NO 4.9 km/h 7.4 km/h 84% 0.0 mm
01:14 10.4 °C 7.7 °C 1020.8 hPa NO 4.7 km/h 7.4 km/h 83.6% 0.0 mm
01:19 10.3 °C 7.6 °C 1020.8 hPa NO 4 km/h 3.7 km/h 83.1% 0.0 mm
01:24 10.3 °C 7.6 °C 1020.8 hPa NO 3.2 km/h 3.9 km/h 83% 0.0 mm
01:29 10.3 °C 7.6 °C 1020.7 hPa NO 2.8 km/h 3.7 km/h 83.3% 0.0 mm
01:34 10.3 °C 7.6 °C 1020.7 hPa NO 2.3 km/h 4.7 km/h 83% 0.0 mm
01:39 10.3 °C 7.6 °C 1020.7 hPa NO 2.3 km/h 4.7 km/h 83% 0.0 mm
01:44 10.4 °C 7.6 °C 1020.6 hPa NO 2.3 km/h 4.7 km/h 83% 0.0 mm
01:49 10.4 °C 7.6 °C 1020.6 hPa NO 2.5 km/h 7.4 km/h 83% 0.0 mm
01:54 10.4 °C 7.5 °C 1020.6 hPa OSO 2.9 km/h 7.4 km/h 82.4% 0.0 mm
01:59 10.5 °C 7.5 °C 1020.5 hPa Oeste 2.9 km/h 5.6 km/h 82% 0.0 mm
02:04 10.6 °C 7.7 °C 1020.5 hPa Oeste 2.9 km/h 5.8 km/h 82% 0.0 mm
02:09 10.6 °C 7.6 °C 1020.5 hPa Oeste 2.9 km/h 4.7 km/h 81.4% 0.0 mm
02:14 10.7 °C 7.5 °C 1020.5 hPa Oeste 2.9 km/h 5.6 km/h 81% 0.0 mm
02:19 10.7 °C 7.5 °C 1020.5 hPa Oeste 2.9 km/h 5.6 km/h 80.9% 0.0 mm
02:24 10.7 °C 7.4 °C 1020.5 hPa Oeste 2.9 km/h 5.8 km/h 80% 0.0 mm
02:29 10.8 °C 7.5 °C 1020.5 hPa Oeste 3 km/h 5.8 km/h 80% 0.0 mm
02:34 10.9 °C 7.6 °C 1020.5 hPa SO 3.2 km/h 8.4 km/h 80% 0.0 mm
02:39 10.9 °C 7.6 °C 1020.5 hPa SSE 3.9 km/h 7.6 km/h 80% 0.0 mm
02:44 10.9 °C 7.7 °C 1020.5 hPa SSE 4.7 km/h 8.7 km/h 80.4% 0.0 mm
02:49 10.9 °C 7.8 °C 1020.5 hPa SSE 5.2 km/h 9.3 km/h 81% 0.0 mm
02:54 10.8 °C 7.7 °C 1020.5 hPa Sur 5.8 km/h 9.5 km/h 81% 0.0 mm
02:59 10.8 °C 7.7 °C 1020.5 hPa SSE 5.8 km/h 9.5 km/h 81% 0.0 mm
03:04 10.8 °C 7.7 °C 1020.5 hPa Sur 5.8 km/h 9.3 km/h 81% 0.0 mm
03:09 10.8 °C 7.7 °C 1020.5 hPa Sur 5.8 km/h 7.6 km/h 81% 0.0 mm
03:14 10.8 °C 7.7 °C 1020.4 hPa SO 5.8 km/h 11.9 km/h 81% 0.0 mm
03:19 10.9 °C 7.8 °C 1020.4 hPa SO 5.8 km/h 11.9 km/h 80.9% 0.0 mm
03:24 10.9 °C 7.6 °C 1020.4 hPa SSO 5.8 km/h 13 km/h 80% 0.0 mm
03:29 10.9 °C 7.4 °C 1020.2 hPa SO 6.3 km/h 11.1 km/h 79.2% 0.0 mm
03:34 10.9 °C 7.4 °C 1020.2 hPa SO 6.9 km/h 14.8 km/h 79% 0.0 mm
03:39 10.9 °C 7.4 °C 1020.2 hPa SSO 7.5 km/h 13 km/h 79% 0.0 mm
03:44 10.9 °C 7.4 °C 1020.1 hPa SSO 8.4 km/h 13 km/h 79% 0.0 mm
03:49 10.9 °C 7.3 °C 1020.1 hPa SSO 7.7 km/h 9.5 km/h 78.3% 0.0 mm
03:54 10.9 °C 7.2 °C 1020.1 hPa SSO 6.9 km/h 9.3 km/h 78% 0.0 mm
03:59 10.9 °C 7.2 °C 1020.1 hPa SO 5.8 km/h 9.5 km/h 78% 0.0 mm
04:04 11 °C 7.3 °C 1020.1 hPa SO 4.7 km/h 9.5 km/h 78% 0.0 mm
04:09 11 °C 7.2 °C 1020.4 hPa SSO 4.8 km/h 8.4 km/h 77.5% 0.0 mm
04:14 11 °C 7.3 °C 1020.4 hPa Oeste 5 km/h 5.8 km/h 77.8% 0.0 mm
04:19 11.1 °C 7.3 °C 1020.4 hPa Oeste 4.2 km/h 7.6 km/h 77.8% 0.0 mm
04:24 11.1 °C 7.4 °C 1020.4 hPa SO 3.2 km/h 11.1 km/h 78% 0.0 mm
04:29 11 °C 7.2 °C 1020.4 hPa SSO 4.4 km/h 9.3 km/h 77.6% 0.0 mm
04:34 11 °C 7.1 °C 1020.4 hPa SO 5.8 km/h 9.5 km/h 77% 0.0 mm
04:39 11 °C 7.1 °C 1020.4 hPa OSO 5.4 km/h 7.4 km/h 77% 0.0 mm
04:44 11 °C 7 °C 1020.3 hPa ONO 5 km/h 8.4 km/h 76.5% 0.0 mm
04:49 10.8 °C 5.8 °C 1020.3 hPa OSO 5.4 km/h 22.2 km/h 71.2% 0.0 mm
04:54 10.8 °C 5 °C 1020.3 hPa OSO 5.8 km/h 13 km/h 67.3% 0.0 mm
04:59 10.9 °C 5.1 °C 1020.3 hPa OSO 6.3 km/h 13 km/h 67.4% 0.0 mm
05:04 11.1 °C 4.9 °C 1020.3 hPa OSO 6.9 km/h 13 km/h 65.7% 0.0 mm
05:09 11.1 °C 5 °C 1020.4 hPa SO 7.2 km/h 12.2 km/h 66% 0.0 mm
05:14 11.1 °C 5 °C 1020.4 hPa SO 7.6 km/h 13 km/h 66% 0.0 mm
05:19 11.1 °C 4.9 °C 1020.4 hPa SO 7.9 km/h 15.6 km/h 65.4% 0.0 mm
05:24 11.2 °C 4.8 °C 1020.6 hPa SO 8.4 km/h 8.4 km/h 65% 0.0 mm
05:29 11.2 °C 4.8 °C 1020.6 hPa Sur 7.2 km/h 10 km/h 65% 0.0 mm
05:34 11.1 °C 4.7 °C 1020.6 hPa SSO 5.8 km/h 13.7 km/h 64.6% 0.0 mm
05:39 11.1 °C 4.5 °C 1020.6 hPa SSO 6.6 km/h 13 km/h 64% 0.0 mm
05:44 11 °C 4.3 °C 1020.6 hPa SO 7.6 km/h 14.8 km/h 63.1% 0.0 mm
05:49 10.9 °C 4.3 °C 1020.6 hPa SO 7.9 km/h 18 km/h 63.8% 0.0 mm
05:54 10.9 °C 3.9 °C 1020.6 hPa SSO 8.4 km/h 18.5 km/h 62.2% 0.0 mm
05:59 10.8 °C 3.7 °C 1020.6 hPa SO 8.5 km/h 13.7 km/h 61.7% 0.0 mm
06:04 10.8 °C 3.4 °C 1020.6 hPa SSO 8.7 km/h 13 km/h 60.1% 0.0 mm
06:09 10.8 °C 3.2 °C 1020.6 hPa OSO 8.2 km/h 15.6 km/h 59.4% 0.0 mm
06:14 10.8 °C 2.8 °C 1020.5 hPa OSO 7.6 km/h 20.4 km/h 58% 0.0 mm
06:19 10.8 °C 2.8 °C 1020.5 hPa OSO 8.8 km/h 20.4 km/h 58% 0.0 mm
06:24 10.8 °C 2.8 °C 1020.5 hPa OSO 10.3 km/h 13 km/h 58% 0.0 mm
06:29 10.8 °C 2.8 °C 1020.5 hPa OSO 9.1 km/h 9.5 km/h 58% 0.0 mm
06:34 10.7 °C 2.8 °C 1020.5 hPa OSO 7.6 km/h 9.3 km/h 58% 0.0 mm
06:39 10.7 °C 2.8 °C 1020.8 hPa SO 6.8 km/h 11.1 km/h 58.1% 0.0 mm
06:44 10.7 °C 2.9 °C 1020.8 hPa SO 5.8 km/h 13 km/h 58.5% 0.0 mm
06:49 10.7 °C 2.8 °C 1020.8 hPa SO 7 km/h 15.6 km/h 58.1% 0.0 mm
06:54 10.7 °C 2.9 °C 1020.8 hPa SO 8.4 km/h 14.8 km/h 58.8% 0.0 mm
06:59 10.7 °C 2.9 °C 1020.7 hPa OSO 7.7 km/h 14.8 km/h 58.7% 0.0 mm
07:04 10.6 °C 2.9 °C 1020.7 hPa OSO 6.9 km/h 13 km/h 58.9% 0.0 mm
07:09 10.6 °C 2.8 °C 1020.9 hPa SO 7.2 km/h 13 km/h 58.7% 0.0 mm
07:14 10.6 °C 2.7 °C 1020.9 hPa SO 7.6 km/h 10 km/h 58% 0.0 mm
07:19 10.6 °C 2.7 °C 1020.9 hPa SSO 7.3 km/h 11.9 km/h 58% 0.0 mm
07:24 10.6 °C 2.7 °C 1020.9 hPa SO 6.9 km/h 11.9 km/h 58% 0.0 mm
07:29 10.6 °C 2.7 °C 1020.8 hPa SO 6.7 km/h 10 km/h 58% 0.0 mm
07:34 10.5 °C 2.6 °C 1020.8 hPa SSO 6.4 km/h 10 km/h 58% 0.0 mm
07:39 10.4 °C 2.6 °C 1020.8 hPa SSO 6.4 km/h 11.9 km/h 58.3% 0.0 mm
07:44 10.4 °C 2.6 °C 1020.7 hPa SSO 6.4 km/h 18.5 km/h 58.6% 0.0 mm
07:49 10.3 °C 2.6 °C 1020.7 hPa SSO 7.8 km/h 20.4 km/h 59% 0.0 mm
07:54 10.3 °C 2.6 °C 1021.0 hPa SSO 9.5 km/h 14.8 km/h 59% 0.0 mm
07:59 10.2 °C 2.6 °C 1021.0 hPa SSO 9.1 km/h 13 km/h 59% 0.0 mm
08:04 10.3 °C 2.6 °C 1021.0 hPa SSO 8.7 km/h 20.4 km/h 58.9% 0.0 mm
08:09 10.3 °C 2.4 °C 1021.0 hPa SSO 9.4 km/h 18.5 km/h 58% 0.0 mm
08:14 10.3 °C 2.4 °C 1020.8 hPa SSO 10.3 km/h 14.8 km/h 58.2% 0.0 mm
08:19 10.3 °C 2.5 °C 1020.8 hPa SSO 10.2 km/h 13 km/h 58.5% 0.0 mm
08:24 10.4 °C 2.5 °C 1021.0 hPa OSO 10 km/h 13 km/h 58% 0.0 mm
08:29 10.4 °C 2.4 °C 1021.0 hPa SSO 8.4 km/h 20.4 km/h 57.5% 0.0 mm
08:34 10.4 °C 2.3 °C 1021.0 hPa SSO 6.4 km/h 19 km/h 57.3% 0.0 mm
08:39 10.4 °C 2.4 °C 1021.2 hPa SSO 7.9 km/h 16.7 km/h 57.7% 0.0 mm
08:44 10.4 °C 2.4 °C 1021.2 hPa SO 10 km/h 11.9 km/h 57.6% 0.0 mm
08:49 10.4 °C 2.4 °C 1021.2 hPa SO 8.1 km/h 11.1 km/h 57.4% 0.0 mm
08:54 10.5 °C 2.3 °C 1021.4 hPa SO 5.8 km/h 13 km/h 57.1% 0.0 mm
08:59 10.5 °C 2.6 °C 1021.4 hPa SO 6.4 km/h 13.7 km/h 58% 0.0 mm
09:04 10.6 °C 2.6 °C 1021.4 hPa SO 6.9 km/h 18 km/h 57.9% 0.0 mm
09:09 10.6 °C 2.5 °C 1021.4 hPa SO 8.1 km/h 18.5 km/h 57% 0.0 mm
09:14 10.7 °C 2.5 °C 1021.4 hPa SSO 9.5 km/h 11.9 km/h 57% 0.0 mm
09:19 10.8 °C 2.6 °C 1021.4 hPa SO 9.1 km/h 13 km/h 57% 0.0 mm
09:24 10.8 °C 2.6 °C 1021.4 hPa SO 8.7 km/h 16.7 km/h 57% 0.0 mm
09:29 10.9 °C 2.7 °C 1021.4 hPa SO 8.5 km/h 13 km/h 57% 0.0 mm
09:34 11 °C 2.7 °C 1021.4 hPa SSO 8.4 km/h 13 km/h 56.6% 0.0 mm
09:39 11.1 °C 2.7 °C 1021.6 hPa SSO 8.4 km/h 16.1 km/h 56.3% 0.0 mm
09:44 11.1 °C 2.7 °C 1021.6 hPa SSO 8.4 km/h 19.8 km/h 56% 0.0 mm
09:49 11.2 °C 2.7 °C 1021.6 hPa SSO 9.1 km/h 20.4 km/h 56% 0.0 mm
09:54 11.2 °C 2.9 °C 1021.7 hPa SO 10 km/h 11.1 km/h 56.5% 0.0 mm
09:59 11.3 °C 2.9 °C 1021.7 hPa SO 8.8 km/h 20.4 km/h 56.2% 0.0 mm
10:04 11.5 °C 2.8 °C 1021.7 hPa OSO 7.6 km/h 14.8 km/h 55.2% 0.0 mm
10:09 11.7 °C 2.8 °C 1021.7 hPa OSO 8.6 km/h 16.7 km/h 54.5% 0.0 mm
10:14 11.8 °C 2.5 °C 1021.6 hPa OSO 10 km/h 20.9 km/h 52.7% 0.0 mm
10:19 12 °C 2.5 °C 1021.6 hPa Oeste 10.1 km/h 22.5 km/h 52% 0.0 mm
10:24 12.2 °C 2.6 °C 1021.6 hPa OSO 10.3 km/h 26.2 km/h 51.8% 0.0 mm
10:29 12.3 °C 2.5 °C 1021.6 hPa Oeste 11 km/h 25.9 km/h 51.1% 0.0 mm
10:34 12.5 °C 2.6 °C 1021.6 hPa Oeste 11.9 km/h 24.5 km/h 51% 0.0 mm
10:39 12.7 °C 2.6 °C 1021.6 hPa Oeste 12 km/h 27.8 km/h 50.3% 0.0 mm
10:44 12.7 °C 2.5 °C 1021.6 hPa Oeste 12.2 km/h 29.8 km/h 49.8% 0.0 mm
10:49 12.8 °C 2.6 °C 1021.6 hPa ONO 14.4 km/h 24.1 km/h 50% 0.0 mm
10:54 12.9 °C 2.5 °C 1021.6 hPa Oeste 17.2 km/h 29.6 km/h 49% 0.0 mm
10:59 13 °C 2.4 °C 1021.6 hPa ONO 17.2 km/h 27.8 km/h 48.7% 0.0 mm
11:04 13.2 °C 2.5 °C 1021.6 hPa ONO 17.2 km/h 24.5 km/h 48.3% 0.0 mm
11:09 13.3 °C 2.6 °C 1021.7 hPa Oeste 16.5 km/h 29.6 km/h 48.3% 0.0 mm
11:14 13.4 °C 2.5 °C 1021.7 hPa Oeste 15.6 km/h 29.6 km/h 47.6% 0.0 mm
11:19 13.4 °C 2.6 °C 1021.7 hPa OSO 16 km/h 25.9 km/h 48% 0.0 mm
11:24 13.4 °C 2.4 °C 1021.7 hPa Oeste 16.4 km/h 28.2 km/h 47.4% 0.0 mm
11:29 13.4 °C 2.4 °C 1021.5 hPa Oeste 16.3 km/h 25.9 km/h 47.5% 0.0 mm
11:34 13.6 °C 2.7 °C 1021.5 hPa Oeste 16.1 km/h 24.1 km/h 47.7% 0.0 mm
11:39 13.6 °C 2.5 °C 1021.5 hPa OSO 14.3 km/h 23.7 km/h 47% 0.0 mm
11:44 13.7 °C 2.6 °C 1021.5 hPa Oeste 11.9 km/h 24.1 km/h 47% 0.0 mm
11:49 13.7 °C 2.6 °C 1021.5 hPa Oeste 12.7 km/h 24.5 km/h 47% 0.0 mm
11:54 13.8 °C 2.7 °C 1021.5 hPa Oeste 13.7 km/h 25.6 km/h 47% 0.0 mm
11:59 13.9 °C 2.4 °C 1021.5 hPa Oeste 13 km/h 27.8 km/h 46% 0.0 mm
12:04 13.9 °C 2.5 °C 1021.5 hPa Oeste 12.2 km/h 29.6 km/h 46% 0.0 mm
12:09 14.1 °C 2.7 °C 1021.5 hPa Oeste 13 km/h 24.5 km/h 46% 0.0 mm
12:14 14.2 °C 2.5 °C 1021.4 hPa Oeste 14 km/h 27.8 km/h 45.1% 0.0 mm
12:19 14.2 °C 2.4 °C 1021.4 hPa Oeste 15.4 km/h 31.7 km/h 45% 0.0 mm
12:24 14.3 °C 2.5 °C 1021.4 hPa ONO 17.2 km/h 30.6 km/h 45% 0.0 mm
12:29 14.4 °C 2.6 °C 1021.2 hPa Oeste 17.2 km/h 30.9 km/h 44.7% 0.0 mm
12:34 14.6 °C 2.5 °C 1021.2 hPa Oeste 17.2 km/h 31.5 km/h 44.3% 0.0 mm
12:39 14.6 °C 2.5 °C 1021.2 hPa ONO 16.9 km/h 26.2 km/h 44.1% 0.0 mm
12:44 14.7 °C 2.6 °C 1021.1 hPa ONO 16.4 km/h 25.9 km/h 43.9% 0.0 mm
12:49 14.8 °C 2.4 °C 1021.1 hPa Oeste 16.3 km/h 29.6 km/h 43.1% 0.0 mm
12:54 14.9 °C 2.6 °C 1021.1 hPa Oeste 16.1 km/h 24.5 km/h 43.4% 0.0 mm
12:59 15.1 °C 2.4 °C 1020.8 hPa ONO 15.4 km/h 22.2 km/h 42.6% 0.0 mm
13:04 15.2 °C 2.4 °C 1020.8 hPa ONO 14.8 km/h 22.5 km/h 42.1% 0.0 mm
13:09 15.4 °C 2.3 °C 1020.8 hPa ONO 14.8 km/h 25.9 km/h 41.2% 0.0 mm
13:14 15.7 °C 2.2 °C 1020.5 hPa ONO 14.8 km/h 22.2 km/h 40.3% 0.0 mm
13:19 15.8 °C 2.2 °C 1020.5 hPa ONO 14.3 km/h 22.2 km/h 40% 0.0 mm
13:24 16 °C 2.3 °C 1020.5 hPa ONO 13.7 km/h 20.9 km/h 39.7% 0.0 mm
13:29 16.2 °C 2.1 °C 1020.4 hPa ONO 12.9 km/h 20.9 km/h 38.7% 0.0 mm
13:34 16.2 °C 2 °C 1020.4 hPa ONO 11.9 km/h 24.1 km/h 38.4% 0.0 mm
13:39 16.3 °C 2 °C 1020.4 hPa ONO 12.1 km/h 23.3 km/h 37.9% 0.0 mm
13:44 16.4 °C 1.8 °C 1020.4 hPa ONO 12.2 km/h 27.8 km/h 37.3% 0.0 mm
13:49 16.4 °C 1.7 °C 1020.4 hPa ONO 14 km/h 27.8 km/h 37% 0.0 mm
13:54 16.4 °C 1.7 °C 1020.4 hPa ONO 16.1 km/h 24.5 km/h 37% 0.0 mm
13:59 16.5 °C 1.7 °C 1020.1 hPa ONO 15.1 km/h 20.4 km/h 36.9% 0.0 mm
14:04 16.7 °C 1.8 °C 1020.1 hPa ONO 14 km/h 24.1 km/h 36.8% 0.0 mm
14:09 16.8 °C 1.9 °C 1020.1 hPa ONO 13.9 km/h 20.9 km/h 36.5% 0.0 mm
14:14 17.1 °C 1.8 °C 1019.9 hPa NO 13.7 km/h 20.4 km/h 35.9% 0.0 mm
14:19 17.2 °C 1.6 °C 1019.9 hPa NO 12.1 km/h 20.4 km/h 35% 0.0 mm
14:24 17.5 °C 1.4 °C 1019.9 hPa NNO 10 km/h 25.9 km/h 34% 0.0 mm
14:29 17.7 °C 0 °C 1019.7 hPa NNO 10.8 km/h 29.8 km/h 30.1% 0.0 mm
14:34 17.8 °C 0 °C 1019.7 hPa NNO 11.9 km/h 33.3 km/h 30% 0.0 mm
14:39 17.9 °C -0.2 °C 1019.7 hPa NNO 12.7 km/h 27.8 km/h 29.5% 0.0 mm
14:44 17.9 °C -0.8 °C 1019.6 hPa NO 13.7 km/h 27.8 km/h 28.2% 0.0 mm
14:49 18.1 °C -0.8 °C 1019.6 hPa NNO 13.8 km/h 26.2 km/h 27.9% 0.0 mm
14:54 18.1 °C -1.6 °C 1019.6 hPa NNO 14 km/h 29.8 km/h 26.2% 0.0 mm
14:59 18.2 °C -2.1 °C 1019.5 hPa NNO 14.4 km/h 29.6 km/h 25.3% 0.0 mm
15:04 18.2 °C -2.4 °C 1019.5 hPa NNO 14.8 km/h 31.5 km/h 24.6% 0.0 mm
15:09 18.2 °C -2.4 °C 1019.5 hPa NNO 15.2 km/h 29.6 km/h 24.6% 0.0 mm
15:14 18.3 °C -2.8 °C 1019.4 hPa North 15.6 km/h 32.3 km/h 23.8% 0.0 mm
15:19 18.3 °C -3.2 °C 1019.4 hPa North 16.8 km/h 35.2 km/h 23% 0.0 mm
15:24 18.3 °C -3.2 °C 1019.5 hPa NNO 18.3 km/h 25.9 km/h 23.1% 0.0 mm
15:29 18.3 °C -3.1 °C 1019.5 hPa North 17.1 km/h 28.2 km/h 23.2% 0.0 mm
15:34 18.3 °C -3.1 °C 1019.5 hPa NNO 15.6 km/h 25.6 km/h 23.3% 0.0 mm
15:39 18.3 °C -2.8 °C 1019.5 hPa NNE 14.5 km/h 25.9 km/h 23.8% 0.0 mm
15:44 18.4 °C -2.7 °C 1019.3 hPa NNO 13 km/h 24.1 km/h 23.8% 0.0 mm
15:49 18.4 °C -2.6 °C 1019.3 hPa NNO 12.7 km/h 20.4 km/h 24% 0.0 mm
15:54 18.5 °C -2.6 °C 1019.4 hPa North 12.2 km/h 22.2 km/h 23.9% 0.0 mm
15:59 18.4 °C -3.1 °C 1019.4 hPa NNO 12.1 km/h 27.8 km/h 23.1% 0.0 mm
16:04 18.4 °C -2.8 °C 1019.4 hPa North 11.9 km/h 24.5 km/h 23.6% 0.0 mm
16:09 18.4 °C -2.7 °C 1019.4 hPa NNO 12.4 km/h 19 km/h 23.8% 0.0 mm
16:14 18.4 °C -2.6 °C 1019.3 hPa North 13 km/h 23.7 km/h 24% 0.0 mm
16:19 18.4 °C -2.8 °C 1019.3 hPa NNE 12.2 km/h 25.9 km/h 23.5% 0.0 mm
16:24 18.4 °C -2.9 °C 1019.3 hPa North 11.1 km/h 22.2 km/h 23.3% 0.0 mm
16:29 18.4 °C -2.9 °C 1019.3 hPa North 10.6 km/h 18.3 km/h 23.3% 0.0 mm
16:34 18.4 °C -3.3 °C 1019.3 hPa NNO 10 km/h 25.9 km/h 22.7% 0.0 mm
16:39 18.3 °C -3 °C 1019.3 hPa NE 10.8 km/h 20.4 km/h 23.4% 0.0 mm
16:44 18.3 °C -2.7 °C 1019.3 hPa North 11.9 km/h 20.4 km/h 23.9% 0.0 mm
16:49 18.3 °C -2.7 °C 1019.3 hPa NNE 11 km/h 14.8 km/h 24% 0.0 mm
16:54 18.2 °C -3.2 °C 1019.3 hPa NNE 10 km/h 22.2 km/h 23.2% 0.0 mm
16:59 18.2 °C -3.2 °C 1019.3 hPa NNE 10.5 km/h 16.7 km/h 23.2% 0.0 mm
17:04 18.1 °C -3 °C 1019.3 hPa North 11.1 km/h 16.7 km/h 23.7% 0.0 mm
17:09 18.1 °C -3 °C 1019.4 hPa North 10 km/h 20.1 km/h 23.6% 0.0 mm
17:14 18.1 °C -3.2 °C 1019.4 hPa NNE 8.7 km/h 20.4 km/h 23.3% 0.0 mm
17:19 18 °C -2.9 °C 1019.4 hPa NNE 8.7 km/h 13 km/h 24% 0.0 mm
17:24 17.9 °C -2.5 °C 1019.4 hPa North 8.7 km/h 11.1 km/h 24.8% 0.0 mm
17:29 17.9 °C -2.4 °C 1019.3 hPa NNO 7.1 km/h 8.4 km/h 25% 0.0 mm
17:34 17.9 °C -2 °C 1019.3 hPa NNO 5 km/h 7.4 km/h 25.8% 0.0 mm
17:39 17.9 °C -2.2 °C 1019.5 hPa NO 4.5 km/h 7.4 km/h 25.5% 0.0 mm
17:44 17.9 °C -2.4 °C 1019.5 hPa ONO 3.9 km/h 7.6 km/h 25% 0.0 mm
17:49 17.8 °C -2.5 °C 1019.5 hPa NO 4.2 km/h 7.4 km/h 25% 0.0 mm
17:54 17.7 °C -2.4 °C 1019.5 hPa ONO 4.7 km/h 9.3 km/h 25.4% 0.0 mm
17:59 17.5 °C -2.3 °C 1019.5 hPa Oeste 4.7 km/h 7.4 km/h 25.9% 0.0 mm
18:04 17.4 °C -1.5 °C 1019.5 hPa Oeste 4.7 km/h 10 km/h 27.8% 0.0 mm
18:09 17.2 °C -0.5 °C 1019.5 hPa OSO 5.1 km/h 9.5 km/h 30.1% 0.0 mm
18:14 17 °C 0 °C 1019.5 hPa Oeste 5.8 km/h 11.1 km/h 31.8% 0.0 mm
18:19 16.8 °C 0.5 °C 1019.5 hPa Oeste 6.3 km/h 11.1 km/h 33.2% 0.0 mm
18:24 16.7 °C 0.8 °C 1019.7 hPa ONO 6.9 km/h 13 km/h 34.1% 0.0 mm
18:29 16.6 °C 1 °C 1019.7 hPa ONO 7.2 km/h 13 km/h 35% 0.0 mm
18:34 16.3 °C 1.1 °C 1019.7 hPa ONO 7.6 km/h 14.8 km/h 35.6% 0.0 mm
18:39 16.2 °C 1.1 °C 1019.9 hPa NO 8.1 km/h 19 km/h 36% 0.0 mm
18:44 15.9 °C 1.2 °C 1019.9 hPa NO 8.7 km/h 10 km/h 36.8% 0.0 mm
18:49 15.7 °C 1.4 °C 1019.9 hPa NO 7.9 km/h 14.8 km/h 38% 0.0 mm
18:54 15.6 °C 1.3 °C 1020.0 hPa NO 6.9 km/h 14.8 km/h 38% 0.0 mm
18:59 15.6 °C 1.3 °C 1020.0 hPa NO 8.2 km/h 14.8 km/h 38% 0.0 mm
19:04 15.4 °C 1.4 °C 1020.0 hPa NO 9.5 km/h 16.7 km/h 38.5% 0.0 mm
19:09 15.4 °C 1.5 °C 1020.2 hPa NO 9.7 km/h 16.7 km/h 39% 0.0 mm
19:14 15.3 °C 1.4 °C 1020.2 hPa ONO 10 km/h 14.8 km/h 39% 0.0 mm
19:19 15.3 °C 1.4 °C 1020.2 hPa ONO 10 km/h 18 km/h 39% 0.0 mm
19:24 15.4 °C 1.5 °C 1020.2 hPa ONO 10 km/h 20.9 km/h 39% 0.0 mm
19:29 15.4 °C 1.5 °C 1020.1 hPa ONO 11 km/h 19 km/h 39% 0.0 mm
19:34 15.4 °C 1.5 °C 1020.1 hPa Oeste 12.2 km/h 14.8 km/h 39% 0.0 mm
19:39 15.3 °C 1.4 °C 1020.2 hPa ONO 11 km/h 15.6 km/h 39% 0.0 mm
19:44 15.3 °C 1.5 °C 1020.2 hPa ONO 9.5 km/h 14.8 km/h 39.4% 0.0 mm
19:49 15.2 °C 1.7 °C 1020.2 hPa ONO 9.1 km/h 14.8 km/h 40% 0.0 mm
19:54 15.1 °C 1.6 °C 1020.2 hPa ONO 8.7 km/h 15.6 km/h 40% 0.0 mm
19:59 15 °C 1.5 °C 1020.2 hPa ONO 9.9 km/h 22.2 km/h 40% 0.0 mm
20:04 15 °C 1.5 °C 1020.2 hPa ONO 11.1 km/h 20.4 km/h 40% 0.0 mm
20:09 15.1 °C 1.6 °C 1020.3 hPa ONO 11.5 km/h 18.5 km/h 40% 0.0 mm
20:14 15.1 °C 1.6 °C 1020.3 hPa ONO 11.9 km/h 13.7 km/h 40% 0.0 mm
20:19 14.9 °C 1.5 °C 1020.3 hPa NO 10 km/h 9.5 km/h 40.1% 0.0 mm
20:24 14.8 °C 1.7 °C 1020.3 hPa NO 7.6 km/h 7.4 km/h 41% 0.0 mm
20:29 14.7 °C 1.6 °C 1020.3 hPa ONO 6.3 km/h 9.3 km/h 41% 0.0 mm
20:34 14.6 °C 1.5 °C 1020.3 hPa ONO 4.7 km/h 9.5 km/h 41% 0.0 mm
20:39 14.6 °C 1.7 °C 1020.3 hPa NO 5.2 km/h 7.4 km/h 41.6% 0.0 mm
20:44 14.5 °C 1.7 °C 1020.3 hPa North 5.8 km/h 7.4 km/h 42% 0.0 mm
20:49 14.4 °C 1.6 °C 1020.3 hPa NNE 5.3 km/h 10 km/h 42% 0.0 mm
20:54 14.4 °C 1.6 °C 1020.3 hPa North 4.7 km/h 9.3 km/h 42% 0.0 mm
20:59 14.4 °C 1.6 °C 1020.3 hPa North 4.8 km/h 9.5 km/h 42% 0.0 mm
21:04 14.4 °C 1.3 °C 1020.3 hPa North 5 km/h 9.3 km/h 41% 0.0 mm
21:09 14.4 °C 1.3 °C 1020.3 hPa North 5 km/h 7.4 km/h 41% 0.0 mm
21:14 14.4 °C 1.3 °C 1020.1 hPa North 5 km/h 7.4 km/h 41% 0.0 mm
21:19 14.5 °C 1.1 °C 1020.1 hPa NE 4.8 km/h 8.4 km/h 40.2% 0.0 mm
21:24 14.6 °C 1.1 °C 1020.2 hPa NE 4.7 km/h 7.4 km/h 40% 0.0 mm
21:29 14.6 °C 1.2 °C 1020.2 hPa ENE 4.7 km/h 7.4 km/h 40.3% 0.0 mm
21:34 14.6 °C 1.1 °C 1020.2 hPa ENE 4.7 km/h 7.4 km/h 40% 0.0 mm
21:39 14.4 °C 1.2 °C 1020.2 hPa Este 4.7 km/h 8.4 km/h 40.7% 0.0 mm
21:44 14.3 °C 1.3 °C 1020.2 hPa ESE 4.7 km/h 9.5 km/h 41.4% 0.0 mm
21:49 14.1 °C 1.5 °C 1020.2 hPa ESE 4.7 km/h 7.6 km/h 42.3% 0.0 mm
21:54 13.8 °C 1.5 °C 1020.4 hPa ESE 4.7 km/h 8.4 km/h 43% 0.0 mm
21:59 13.7 °C 1.3 °C 1020.4 hPa NE 4.7 km/h 8.4 km/h 42.8% 0.0 mm
22:04 13.7 °C 1.1 °C 1020.4 hPa North 4.7 km/h 11.9 km/h 42.2% 0.0 mm
22:09 14 °C 0.8 °C 1020.6 hPa ONO 5.7 km/h 16.7 km/h 40.6% 0.0 mm
22:14 14.2 °C 0.8 °C 1020.6 hPa ONO 6.9 km/h 11.9 km/h 40.2% 0.0 mm
22:19 14.2 °C 1.1 °C 1020.6 hPa NE 6.4 km/h 9.3 km/h 41.1% 0.0 mm
22:24 13.8 °C 1.5 °C 1020.8 hPa ESE 5.8 km/h 8.4 km/h 43.2% 0.0 mm
22:29 13.4 °C 1.3 °C 1020.8 hPa SE 5.4 km/h 9.5 km/h 43.5% 0.0 mm
22:34 13.4 °C 1.3 °C 1020.8 hPa OSO 5 km/h 9.3 km/h 43.7% 0.0 mm
22:39 13.4 °C 1.2 °C 1020.8 hPa OSO 5 km/h 8.4 km/h 43.5% 0.0 mm
22:44 13.4 °C 1.2 °C 1020.7 hPa Oeste 5 km/h 15.6 km/h 43.4% 0.0 mm
22:49 13.4 °C 1.2 °C 1020.7 hPa OSO 4.8 km/h 7.4 km/h 43.6% 0.0 mm
22:54 13.3 °C 1 °C 1020.9 hPa SO 4.7 km/h 7.4 km/h 43% 0.0 mm
22:59 13.3 °C 1 °C 1020.9 hPa Sur 4.3 km/h 7.4 km/h 43.2% 0.0 mm
23:04 13.3 °C 1.2 °C 1020.9 hPa SSO 3.9 km/h 11.1 km/h 43.8% 0.0 mm
23:09 13.2 °C 0.9 °C 1020.9 hPa OSO 4.2 km/h 11.1 km/h 43% 0.0 mm
23:14 13.2 °C 0.9 °C 1020.9 hPa OSO 4.7 km/h 9.5 km/h 43% 0.0 mm
23:19 13.2 °C 0.9 °C 1020.9 hPa OSO 5.4 km/h 13 km/h 43% 0.0 mm
23:24 13.2 °C 0.9 °C 1021.1 hPa OSO 6.4 km/h 11.1 km/h 43% 0.0 mm
23:29 13.2 °C 0.9 °C 1021.1 hPa SSO 6.2 km/h 9.5 km/h 43% 0.0 mm
23:34 13.2 °C 0.9 °C 1021.1 hPa Sur 5.8 km/h 13 km/h 43% 0.0 mm
23:39 13.1 °C 1.1 °C 1021.3 hPa Sur 6.6 km/h 11.1 km/h 44% 0.0 mm
23:44 12.9 °C 1 °C 1021.3 hPa Sur 7.6 km/h 13 km/h 44.3% 0.0 mm
23:49 12.8 °C 1.2 °C 1021.3 hPa SSO 8 km/h 13.7 km/h 45% 0.0 mm
23:54 12.8 °C 1.2 °C 1021.3 hPa SSO 8.7 km/h 14.8 km/h 45% 0.0 mm
23:59 12.8 °C 1.1 °C 1021.3 hPa SO 8.7 km/h 16.7 km/h 44.6% 0.0 mm
Murcia-Puente Tocinos, Espa?a
Compliments of Weather Underground - 3.25 mb

La estación de MeteoMurcia.com, publica sus datos en los siguientes proyectos:

Weather Underground PWS IMURCIAP2 Meteoclimatic www.awekas.at

W3Counter
Web Analytics